sensor_id;sensor_type;location;lat;lon;timestamp;pressure;altitude;pressure_sealevel;temperature;humidity
76864;BME280;65834;52.364;9.754;2024-02-23T00:00:04;97742.91;;;10.51;51.71
76864;BME280;65834;52.364;9.754;2024-02-23T00:02:35;97749.97;;;10.52;51.84
76864;BME280;65834;52.364;9.754;2024-02-23T00:05:05;97751.84;;;10.51;51.38
76864;BME280;65834;52.364;9.754;2024-02-23T00:07:35;97771.56;;;10.52;52.26
76864;BME280;65834;52.364;9.754;2024-02-23T00:10:08;97773.69;;;10.50;52.19
76864;BME280;65834;52.364;9.754;2024-02-23T00:12:37;97791.78;;;10.49;52.94
76864;BME280;65834;52.364;9.754;2024-02-23T00:15:08;97763.41;;;10.47;52.03
76864;BME280;65834;52.364;9.754;2024-02-23T00:17:37;97796.91;;;10.46;51.77
76864;BME280;65834;52.364;9.754;2024-02-23T00:20:09;97793.13;;;10.47;51.38
76864;BME280;65834;52.364;9.754;2024-02-23T00:22:42;97790.69;;;10.45;51.95
76864;BME280;65834;52.364;9.754;2024-02-23T00:25:14;97825.81;;;10.45;52.09
76864;BME280;65834;52.364;9.754;2024-02-23T00:27:45;97809.03;;;10.43;51.13
76864;BME280;65834;52.364;9.754;2024-02-23T00:30:14;97812.50;;;10.39;50.93
76864;BME280;65834;52.364;9.754;2024-02-23T00:32:44;97799.53;;;10.36;51.62
76864;BME280;65834;52.364;9.754;2024-02-23T00:35:14;97798.66;;;10.30;52.22
76864;BME280;65834;52.364;9.754;2024-02-23T00:37:44;97805.44;;;10.32;51.90
76864;BME280;65834;52.364;9.754;2024-02-23T00:40:16;97802.72;;;10.32;51.90
76864;BME280;65834;52.364;9.754;2024-02-23T00:42:45;97822.78;;;10.37;51.83
76864;BME280;65834;52.364;9.754;2024-02-23T00:45:15;97823.84;;;10.36;52.28
76864;BME280;65834;52.364;9.754;2024-02-23T00:47:45;97826.28;;;10.37;52.07
76864;BME280;65834;52.364;9.754;2024-02-23T00:50:16;97832.75;;;10.36;51.99
76864;BME280;65834;52.364;9.754;2024-02-23T00:52:45;97806.28;;;10.38;52.73
76864;BME280;65834;52.364;9.754;2024-02-23T00:55:18;97834.13;;;10.39;51.96
76864;BME280;65834;52.364;9.754;2024-02-23T00:57:48;97839.25;;;10.40;51.59
76864;BME280;65834;52.364;9.754;2024-02-23T01:00:18;97839.25;;;10.40;51.35
76864;BME280;65834;52.364;9.754;2024-02-23T01:02:48;97843.63;;;10.41;51.04
76864;BME280;65834;52.364;9.754;2024-02-23T01:05:18;97857.13;;;10.41;52.02
76864;BME280;65834;52.364;9.754;2024-02-23T01:07:47;97862.22;;;10.38;52.00
76864;BME280;65834;52.364;9.754;2024-02-23T01:10:20;97846.47;;;10.29;51.37
76864;BME280;65834;52.364;9.754;2024-02-23T01:12:49;97851.00;;;10.24;51.19
76864;BME280;65834;52.364;9.754;2024-02-23T01:15:20;97865.53;;;10.18;51.51
76864;BME280;65834;52.364;9.754;2024-02-23T01:17:49;97880.59;;;10.14;51.77
76864;BME280;65834;52.364;9.754;2024-02-23T01:20:19;97895.38;;;10.11;52.11
76864;BME280;65834;52.364;9.754;2024-02-23T01:22:49;97904.31;;;10.12;51.85
76864;BME280;65834;52.364;9.754;2024-02-23T01:25:21;97910.22;;;10.09;52.26
76864;BME280;65834;52.364;9.754;2024-02-23T01:27:51;97884.44;;;10.01;52.78
76864;BME280;65834;52.364;9.754;2024-02-23T01:30:20;97936.31;;;10.03;53.64
76864;BME280;65834;52.364;9.754;2024-02-23T01:32:50;97946.88;;;10.05;53.19
76864;BME280;65834;52.364;9.754;2024-02-23T01:35:20;97967.94;;;10.03;53.30
76864;BME280;65834;52.364;9.754;2024-02-23T01:37:50;97980.28;;;9.99;54.20
76864;BME280;65834;52.364;9.754;2024-02-23T01:40:22;97995.91;;;9.97;54.74
76864;BME280;65834;52.364;9.754;2024-02-23T01:43:00;98012.84;;;9.92;55.28
76864;BME280;65834;52.364;9.754;2024-02-23T01:45:31;98015.72;;;9.86;57.05
76864;BME280;65834;52.364;9.754;2024-02-23T01:48:00;98039.28;;;9.73;58.45
76864;BME280;65834;52.364;9.754;2024-02-23T01:50:31;98051.47;;;9.59;59.79
76864;BME280;65834;52.364;9.754;2024-02-23T01:53:02;98059.94;;;9.51;60.99
76864;BME280;65834;52.364;9.754;2024-02-23T01:55:34;98083.34;;;9.46;61.32
76864;BME280;65834;52.364;9.754;2024-02-23T01:58:04;98087.56;;;9.42;60.98
76864;BME280;65834;52.364;9.754;2024-02-23T02:00:35;98104.84;;;9.41;61.54
76864;BME280;65834;52.364;9.754;2024-02-23T02:03:13;98109.78;;;9.32;62.18
76864;BME280;65834;52.364;9.754;2024-02-23T02:05:44;98128.00;;;9.25;62.31
76864;BME280;65834;52.364;9.754;2024-02-23T02:08:17;98148.41;;;9.21;63.41
76864;BME280;65834;52.364;9.754;2024-02-23T02:10:49;98144.94;;;9.09;64.07
76864;BME280;65834;52.364;9.754;2024-02-23T02:13:19;98170.63;;;9.00;64.49
76864;BME280;65834;52.364;9.754;2024-02-23T02:15:50;98178.63;;;8.95;64.87
76864;BME280;65834;52.364;9.754;2024-02-23T02:18:19;98183.88;;;8.90;64.32
76864;BME280;65834;52.364;9.754;2024-02-23T02:20:51;98178.75;;;8.88;64.47
76864;BME280;65834;52.364;9.754;2024-02-23T02:23:21;98194.22;;;8.81;64.22
76864;BME280;65834;52.364;9.754;2024-02-23T02:25:57;98188.81;;;8.81;63.64
76864;BME280;65834;52.364;9.754;2024-02-23T02:28:27;98202.19;;;8.76;63.14
76864;BME280;65834;52.364;9.754;2024-02-23T02:30:57;98205.72;;;8.77;62.85
76864;BME280;65834;52.364;9.754;2024-02-23T02:33:26;98211.69;;;8.67;62.97
76864;BME280;65834;52.364;9.754;2024-02-23T02:35:56;98210.41;;;8.58;63.01
76864;BME280;65834;52.364;9.754;2024-02-23T02:38:25;98214.59;;;8.54;63.35
76864;BME280;65834;52.364;9.754;2024-02-23T02:40:59;98222.44;;;8.55;62.87
76864;BME280;65834;52.364;9.754;2024-02-23T02:43:29;98211.91;;;8.54;62.75
76864;BME280;65834;52.364;9.754;2024-02-23T02:45:59;98239.53;;;8.49;62.85
76864;BME280;65834;52.364;9.754;2024-02-23T03:00:59;98273.88;;;8.54;nan
76864;BME280;65834;52.364;9.754;2024-02-23T03:03:29;98273.41;;;8.45;nan
76864;BME280;65834;52.364;9.754;2024-02-23T03:05:59;98269.88;;;8.33;nan
76864;BME280;65834;52.364;9.754;2024-02-23T03:08:29;98259.78;;;8.29;nan
76864;BME280;65834;52.364;9.754;2024-02-23T03:11:02;98278.09;;;8.20;nan
76864;BME280;65834;52.364;9.754;2024-02-23T03:13:32;98280.34;;;8.23;nan
76864;BME280;65834;52.364;9.754;2024-02-23T03:16:02;98277.06;;;8.21;nan
76864;BME280;65834;52.364;9.754;2024-02-23T03:18:32;98298.88;;;8.31;nan
76864;BME280;65834;52.364;9.754;2024-02-23T03:21:02;98290.13;;;8.36;nan
76864;BME280;65834;52.364;9.754;2024-02-23T03:23:33;98308.38;;;8.34;nan
76864;BME280;65834;52.364;9.754;2024-02-23T03:26:06;98311.31;;;8.32;nan
76864;BME280;65834;52.364;9.754;2024-02-23T03:28:36;98304.25;;;8.31;nan
76864;BME280;65834;52.364;9.754;2024-02-23T03:31:09;98295.81;;;8.28;nan
76864;BME280;65834;52.364;9.754;2024-02-23T03:33:39;98318.63;;;8.25;nan
76864;BME280;65834;52.364;9.754;2024-02-23T03:36:09;98320.81;;;8.16;nan
76864;BME280;65834;52.364;9.754;2024-02-23T03:38:39;98310.09;;;7.98;nan
76864;BME280;65834;52.364;9.754;2024-02-23T03:41:11;98339.16;;;8.08;nan
76864;BME280;65834;52.364;9.754;2024-02-23T03:43:41;98340.66;;;8.04;nan
76864;BME280;65834;52.364;9.754;2024-02-23T03:46:10;98339.75;;;8.10;nan
76864;BME280;65834;52.364;9.754;2024-02-23T03:48:41;98342.22;;;8.11;nan
76864;BME280;65834;52.364;9.754;2024-02-23T03:51:11;98337.69;;;8.12;nan
76864;BME280;65834;52.364;9.754;2024-02-23T03:53:40;98364.34;;;8.13;nan
76864;BME280;65834;52.364;9.754;2024-02-23T03:56:13;98360.16;;;8.17;nan
76864;BME280;65834;52.364;9.754;2024-02-23T03:58:43;98371.75;;;8.18;nan
76864;BME280;65834;52.364;9.754;2024-02-23T04:01:13;98363.69;;;8.18;nan
76864;BME280;65834;52.364;9.754;2024-02-23T04:03:43;98377.38;;;8.16;nan
76864;BME280;65834;52.364;9.754;2024-02-23T04:06:13;98384.03;;;8.14;nan
76864;BME280;65834;52.364;9.754;2024-02-23T04:08:43;98382.53;;;8.18;nan
76864;BME280;65834;52.364;9.754;2024-02-23T04:11:19;98392.56;;;8.11;nan
76864;BME280;65834;52.364;9.754;2024-02-23T04:13:49;98396.22;;;8.16;nan
76864;BME280;65834;52.364;9.754;2024-02-23T04:16:22;98400.31;;;8.19;nan
76864;BME280;65834;52.364;9.754;2024-02-23T04:18:52;98387.69;;;8.19;nan
76864;BME280;65834;52.364;9.754;2024-02-23T04:21:23;98398.44;;;8.19;nan
76864;BME280;65834;52.364;9.754;2024-02-23T04:23:53;98405.03;;;8.24;nan
76864;BME280;65834;52.364;9.754;2024-02-23T04:26:25;98414.53;;;8.26;nan
76864;BME280;65834;52.364;9.754;2024-02-23T04:28:55;98417.44;;;8.25;nan
76864;BME280;65834;52.364;9.754;2024-02-23T04:31:25;98409.13;;;8.26;nan
76864;BME280;65834;52.364;9.754;2024-02-23T04:33:54;98411.84;;;8.26;nan
76864;BME280;65834;52.364;9.754;2024-02-23T04:36:25;98418.25;;;8.25;nan
76864;BME280;65834;52.364;9.754;2024-02-23T04:38:54;98418.03;;;8.27;nan
76864;BME280;65834;52.364;9.754;2024-02-23T04:41:27;98425.69;;;8.30;nan
76864;BME280;65834;52.364;9.754;2024-02-23T04:43:57;98431.09;;;8.30;nan
76864;BME280;65834;52.364;9.754;2024-02-23T04:46:28;98421.78;;;8.26;nan
76864;BME280;65834;52.364;9.754;2024-02-23T04:49:01;98435.25;;;8.26;nan
76864;BME280;65834;52.364;9.754;2024-02-23T04:51:31;98428.19;;;8.25;nan
76864;BME280;65834;52.364;9.754;2024-02-23T04:54:01;98436.22;;;8.31;nan
76864;BME280;65834;52.364;9.754;2024-02-23T04:56:33;98447.84;;;8.32;nan
76864;BME280;65834;52.364;9.754;2024-02-23T04:59:03;98454.50;;;8.29;nan
76864;BME280;65834;52.364;9.754;2024-02-23T05:01:35;98459.63;;;8.31;nan
76864;BME280;65834;52.364;9.754;2024-02-23T05:04:05;98455.69;;;8.33;nan
76864;BME280;65834;52.364;9.754;2024-02-23T05:06:35;98472.66;;;8.34;nan
76864;BME280;65834;52.364;9.754;2024-02-23T05:09:04;98468.94;;;8.35;nan
76864;BME280;65834;52.364;9.754;2024-02-23T05:11:38;98472.81;;;8.39;nan
76864;BME280;65834;52.364;9.754;2024-02-23T05:14:08;98477.16;;;8.40;nan
76864;BME280;65834;52.364;9.754;2024-02-23T05:16:38;98484.06;;;8.36;nan
76864;BME280;65834;52.364;9.754;2024-02-23T05:19:08;98492.78;;;8.31;nan
76864;BME280;65834;52.364;9.754;2024-02-23T05:21:38;98486.56;;;8.31;nan
76864;BME280;65834;52.364;9.754;2024-02-23T05:24:07;98492.19;;;8.29;nan
76864;BME280;65834;52.364;9.754;2024-02-23T05:26:40;98495.72;;;8.30;nan
76864;BME280;65834;52.364;9.754;2024-02-23T05:29:11;98508.19;;;8.24;nan
76864;BME280;65834;52.364;9.754;2024-02-23T05:31:46;98503.81;;;8.30;nan
76864;BME280;65834;52.364;9.754;2024-02-23T05:34:17;98498.84;;;8.27;nan
76864;BME280;65834;52.364;9.754;2024-02-23T05:36:47;98517.69;;;8.27;nan
76864;BME280;65834;52.364;9.754;2024-02-23T05:39:17;98519.41;;;8.21;nan
76864;BME280;65834;52.364;9.754;2024-02-23T05:41:50;98521.81;;;8.29;nan
76864;BME280;65834;52.364;9.754;2024-02-23T05:44:19;98523.91;;;8.27;nan
76864;BME280;65834;52.364;9.754;2024-02-23T05:46:50;98517.03;;;8.31;nan
76864;BME280;65834;52.364;9.754;2024-02-23T05:49:19;98524.53;;;8.29;nan
76864;BME280;65834;52.364;9.754;2024-02-23T05:51:49;98525.09;;;8.31;nan
76864;BME280;65834;52.364;9.754;2024-02-23T05:54:19;98527.97;;;8.36;nan
76864;BME280;65834;52.364;9.754;2024-02-23T05:56:51;98519.13;;;8.29;nan
76864;BME280;65834;52.364;9.754;2024-02-23T05:59:21;98538.38;;;8.33;nan
76864;BME280;65834;52.364;9.754;2024-02-23T06:01:51;98530.72;;;8.30;nan
76864;BME280;65834;52.364;9.754;2024-02-23T06:04:24;98526.53;;;8.34;nan
76864;BME280;65834;52.364;9.754;2024-02-23T06:06:55;98534.41;;;8.35;nan
76864;BME280;65834;52.364;9.754;2024-02-23T06:09:24;98531.31;;;8.32;nan
76864;BME280;65834;52.364;9.754;2024-02-23T06:11:57;98534.59;;;8.34;nan
76864;BME280;65834;52.364;9.754;2024-02-23T06:14:26;98542.47;;;8.35;nan
76864;BME280;65834;52.364;9.754;2024-02-23T06:16:57;98542.69;;;8.34;nan
76864;BME280;65834;52.364;9.754;2024-02-23T06:19:26;98553.69;;;8.32;nan
76864;BME280;65834;52.364;9.754;2024-02-23T06:21:57;98556.16;;;8.34;nan
76864;BME280;65834;52.364;9.754;2024-02-23T06:24:26;98549.91;;;8.40;nan
76864;BME280;65834;52.364;9.754;2024-02-23T06:26:59;98552.94;;;8.43;nan
76864;BME280;65834;52.364;9.754;2024-02-23T06:29:29;98556.78;;;8.36;nan
76864;BME280;65834;52.364;9.754;2024-02-23T06:32:00;98568.19;;;8.31;nan
76864;BME280;65834;52.364;9.754;2024-02-23T06:34:29;98567.16;;;8.32;nan
76864;BME280;65834;52.364;9.754;2024-02-23T06:37:00;98559.53;;;8.29;nan
76864;BME280;65834;52.364;9.754;2024-02-23T06:39:30;98576.91;;;8.33;nan
76864;BME280;65834;52.364;9.754;2024-02-23T06:42:03;98569.84;;;8.32;nan
76864;BME280;65834;52.364;9.754;2024-02-23T06:44:33;98584.81;;;8.28;nan
76864;BME280;65834;52.364;9.754;2024-02-23T06:47:04;98588.91;;;8.31;nan
76864;BME280;65834;52.364;9.754;2024-02-23T06:49:33;98595.78;;;8.27;nan
76864;BME280;65834;52.364;9.754;2024-02-23T06:52:03;98590.22;;;8.22;nan
76864;BME280;65834;52.364;9.754;2024-02-23T06:54:33;98608.72;;;8.18;nan
76864;BME280;65834;52.364;9.754;2024-02-23T06:57:05;98613.44;;;8.23;nan
76864;BME280;65834;52.364;9.754;2024-02-23T06:59:35;98604.13;;;8.18;nan
76864;BME280;65834;52.364;9.754;2024-02-23T07:02:05;98616.81;;;8.18;nan
76864;BME280;65834;52.364;9.754;2024-02-23T07:04:35;98610.78;;;8.16;nan
76864;BME280;65834;52.364;9.754;2024-02-23T07:07:05;98631.69;;;8.21;nan
76864;BME280;65834;52.364;9.754;2024-02-23T07:09:36;98624.19;;;8.23;nan
76864;BME280;65834;52.364;9.754;2024-02-23T07:12:09;98630.19;;;8.25;nan
76864;BME280;65834;52.364;9.754;2024-02-23T07:14:40;98635.78;;;8.30;nan
76864;BME280;65834;52.364;9.754;2024-02-23T07:17:10;98644.47;;;8.25;nan
76864;BME280;65834;52.364;9.754;2024-02-23T07:19:41;98647.38;;;8.30;nan
76864;BME280;65834;52.364;9.754;2024-02-23T07:22:11;98648.63;;;8.28;nan
76864;BME280;65834;52.364;9.754;2024-02-23T07:24:42;98644.69;;;8.30;nan
76864;BME280;65834;52.364;9.754;2024-02-23T07:27:15;98655.00;;;8.33;nan
76864;BME280;65834;52.364;9.754;2024-02-23T07:29:44;98661.44;;;8.32;nan
76864;BME280;65834;52.364;9.754;2024-02-23T07:32:15;98662.25;;;8.33;nan
76864;BME280;65834;52.364;9.754;2024-02-23T07:34:45;98664.72;;;8.34;nan
76864;BME280;65834;52.364;9.754;2024-02-23T07:37:15;98666.38;;;8.35;nan
76864;BME280;65834;52.364;9.754;2024-02-23T07:39:44;98659.78;;;8.31;nan
76864;BME280;65834;52.364;9.754;2024-02-23T07:42:17;98669.28;;;8.34;nan
76864;BME280;65834;52.364;9.754;2024-02-23T07:44:47;98677.97;;;8.36;nan
76864;BME280;65834;52.364;9.754;2024-02-23T07:47:17;98676.56;;;8.33;nan
76864;BME280;65834;52.364;9.754;2024-02-23T07:49:47;98665.09;;;8.38;nan
76864;BME280;65834;52.364;9.754;2024-02-23T07:52:18;98677.53;;;8.39;nan
76864;BME280;65834;52.364;9.754;2024-02-23T07:54:49;98682.88;;;8.45;nan
76864;BME280;65834;52.364;9.754;2024-02-23T07:57:22;98688.25;;;8.45;nan
76864;BME280;65834;52.364;9.754;2024-02-23T07:59:51;98687.19;;;8.46;nan
76864;BME280;65834;52.364;9.754;2024-02-23T08:02:22;98699.88;;;8.46;nan
76864;BME280;65834;52.364;9.754;2024-02-23T08:04:52;98703.34;;;8.46;nan
76864;BME280;65834;52.364;9.754;2024-02-23T08:07:22;98715.19;;;8.45;nan
76864;BME280;65834;52.364;9.754;2024-02-23T08:09:55;98719.97;;;8.43;nan
76864;BME280;65834;52.364;9.754;2024-02-23T08:12:27;98724.91;;;8.46;nan
76864;BME280;65834;52.364;9.754;2024-02-23T08:14:57;98725.53;;;8.48;nan
76864;BME280;65834;52.364;9.754;2024-02-23T08:17:27;98724.66;;;8.54;nan
76864;BME280;65834;52.364;9.754;2024-02-23T08:19:57;98727.78;;;8.51;nan
76864;BME280;65834;52.364;9.754;2024-02-23T08:22:27;98740.59;;;8.56;nan
76864;BME280;65834;52.364;9.754;2024-02-23T08:24:57;98743.91;;;8.58;nan
76864;BME280;65834;52.364;9.754;2024-02-23T08:27:29;98744.53;;;8.53;nan
76864;BME280;65834;52.364;9.754;2024-02-23T08:29:59;98747.34;;;8.65;nan
76864;BME280;65834;52.364;9.754;2024-02-23T08:32:30;98745.47;;;8.65;nan
76864;BME280;65834;52.364;9.754;2024-02-23T08:34:59;98736.78;;;8.63;nan
76864;BME280;65834;52.364;9.754;2024-02-23T08:37:29;98730.78;;;8.61;nan
76864;BME280;65834;52.364;9.754;2024-02-23T08:39:59;98740.81;;;8.54;nan
76864;BME280;65834;52.364;9.754;2024-02-23T08:42:33;98740.38;;;8.57;nan
76864;BME280;65834;52.364;9.754;2024-02-23T08:45:03;98726.47;;;8.60;nan
76864;BME280;65834;52.364;9.754;2024-02-23T08:47:33;98728.53;;;8.58;nan
76864;BME280;65834;52.364;9.754;2024-02-23T08:50:04;98733.72;;;8.60;nan
76864;BME280;65834;52.364;9.754;2024-02-23T08:52:34;98730.56;;;8.63;nan
76864;BME280;65834;52.364;9.754;2024-02-23T08:55:04;98737.84;;;8.62;nan
76864;BME280;65834;52.364;9.754;2024-02-23T08:57:37;98732.22;;;8.64;nan
76864;BME280;65834;52.364;9.754;2024-02-23T09:00:08;98750.41;;;8.68;nan
76864;BME280;65834;52.364;9.754;2024-02-23T09:02:42;98736.34;;;8.66;nan
76864;BME280;65834;52.364;9.754;2024-02-23T09:05:12;98733.22;;;8.69;nan
76864;BME280;65834;52.364;9.754;2024-02-23T09:07:42;98741.88;;;8.71;nan
76864;BME280;65834;52.364;9.754;2024-02-23T09:10:12;98742.66;;;8.79;nan
76864;BME280;65834;52.364;9.754;2024-02-23T09:12:45;98745.50;;;8.84;nan
76864;BME280;65834;52.364;9.754;2024-02-23T09:15:14;98746.72;;;8.88;nan
76864;BME280;65834;52.364;9.754;2024-02-23T09:17:44;98747.50;;;8.95;nan
76864;BME280;65834;52.364;9.754;2024-02-23T09:20:14;98750.19;;;8.95;nan
76864;BME280;65834;52.364;9.754;2024-02-23T09:22:45;98744.34;;;8.98;nan
76864;BME280;65834;52.364;9.754;2024-02-23T09:25:14;98756.31;;;9.02;nan
76864;BME280;65834;52.364;9.754;2024-02-23T09:27:47;98748.22;;;9.02;nan
76864;BME280;65834;52.364;9.754;2024-02-23T09:30:16;98751.38;;;8.99;nan
76864;BME280;65834;52.364;9.754;2024-02-23T09:32:46;98746.59;;;9.01;nan
76864;BME280;65834;52.364;9.754;2024-02-23T09:35:16;98753.16;;;9.05;nan
76864;BME280;65834;52.364;9.754;2024-02-23T09:37:46;98749.13;;;8.96;nan
76864;BME280;65834;52.364;9.754;2024-02-23T09:40:16;98750.00;;;8.90;nan
76864;BME280;65834;52.364;9.754;2024-02-23T09:42:55;98754.34;;;8.91;nan
76864;BME280;65834;52.364;9.754;2024-02-23T09:45:26;98754.22;;;8.86;nan
76864;BME280;65834;52.364;9.754;2024-02-23T09:47:57;98758.47;;;8.93;nan
76864;BME280;65834;52.364;9.754;2024-02-23T09:50:28;98758.34;;;8.88;nan
76864;BME280;65834;52.364;9.754;2024-02-23T09:53:01;98779.06;;;8.88;nan
76864;BME280;65834;52.364;9.754;2024-02-23T09:55:33;98774.91;;;8.92;nan
76864;BME280;65834;52.364;9.754;2024-02-23T09:58:06;98781.53;;;8.89;nan
76864;BME280;65834;52.364;9.754;2024-02-23T10:00:38;98774.28;;;8.90;nan
76864;BME280;65834;52.364;9.754;2024-02-23T10:03:08;98762.22;;;8.92;nan
76864;BME280;65834;52.364;9.754;2024-02-23T10:05:38;98777.19;;;8.88;nan
76864;BME280;65834;52.364;9.754;2024-02-23T10:08:08;98759.75;;;8.91;nan
76864;BME280;65834;52.364;9.754;2024-02-23T10:10:39;98772.41;;;8.90;nan
76864;BME280;65834;52.364;9.754;2024-02-23T10:13:13;98784.91;;;8.85;nan
76864;BME280;65834;52.364;9.754;2024-02-23T10:15:43;98758.97;;;8.84;nan
76864;BME280;65834;52.364;9.754;2024-02-23T10:18:26;98760.06;;;8.83;nan
76864;BME280;65834;52.364;9.754;2024-02-23T10:20:56;98781.63;;;8.83;nan
76864;BME280;65834;52.364;9.754;2024-02-23T10:23:26;98793.38;;;8.88;nan
76864;BME280;65834;52.364;9.754;2024-02-23T10:25:56;98784.47;;;8.88;nan
76864;BME280;65834;52.364;9.754;2024-02-23T10:28:29;98790.63;;;8.95;nan
76864;BME280;65834;52.364;9.754;2024-02-23T10:30:59;98776.25;;;9.01;nan
76864;BME280;65834;52.364;9.754;2024-02-23T10:33:30;98792.97;;;9.09;nan
76864;BME280;65834;52.364;9.754;2024-02-23T10:36:00;98779.41;;;9.16;nan
76864;BME280;65834;52.364;9.754;2024-02-23T10:38:32;98789.38;;;9.15;nan
76864;BME280;65834;52.364;9.754;2024-02-23T10:41:05;98786.00;;;9.20;nan
76864;BME280;65834;52.364;9.754;2024-02-23T10:43:39;98795.75;;;9.21;nan
76864;BME280;65834;52.364;9.754;2024-02-23T10:46:11;98779.56;;;9.21;nan
76864;BME280;65834;52.364;9.754;2024-02-23T10:48:44;98789.00;;;9.30;nan
76864;BME280;65834;52.364;9.754;2024-02-23T10:51:14;98789.97;;;9.36;nan
76864;BME280;65834;52.364;9.754;2024-02-23T10:53:46;98787.66;;;9.39;nan
76864;BME280;65834;52.364;9.754;2024-02-23T10:56:18;98787.66;;;9.39;nan
76864;BME280;65834;52.364;9.754;2024-02-23T10:58:51;98776.47;;;9.36;nan
76864;BME280;65834;52.364;9.754;2024-02-23T11:01:21;98782.06;;;9.41;nan
76864;BME280;65834;52.364;9.754;2024-02-23T11:03:52;98784.28;;;9.44;nan
76864;BME280;65834;52.364;9.754;2024-02-23T11:06:27;98781.16;;;9.47;nan
76864;BME280;65834;52.364;9.754;2024-02-23T11:09:05;98773.63;;;9.49;nan
76864;BME280;65834;52.364;9.754;2024-02-23T11:18:27;98769.88;;;9.68;nan
76864;BME280;65834;52.364;9.754;2024-02-23T11:20:59;98766.28;;;9.74;nan
76864;BME280;65834;52.364;9.754;2024-02-23T11:23:40;98769.34;;;9.77;nan
76864;BME280;65834;52.364;9.754;2024-02-23T11:26:11;98765.72;;;9.84;nan
76864;BME280;65834;52.364;9.754;2024-02-23T11:28:42;98754.31;;;9.81;nan
76864;BME280;65834;52.364;9.754;2024-02-23T11:31:13;98764.66;;;9.85;nan
76864;BME280;65834;52.364;9.754;2024-02-23T11:33:55;98768.19;;;9.85;nan
76864;BME280;65834;52.364;9.754;2024-02-23T11:36:28;98751.41;;;9.83;nan
76864;BME280;65834;52.364;9.754;2024-02-23T11:38:59;98746.38;;;9.87;nan
76864;BME280;65834;52.364;9.754;2024-02-23T11:41:28;98754.22;;;9.88;nan
76864;BME280;65834;52.364;9.754;2024-02-23T11:43:58;98749.19;;;9.92;nan
76864;BME280;65834;52.364;9.754;2024-02-23T11:46:30;98758.72;;;9.94;nan
76864;BME280;65834;52.364;9.754;2024-02-23T11:49:02;98743.22;;;9.90;nan
76864;BME280;65834;52.364;9.754;2024-02-23T11:51:32;98757.78;;;10.00;nan
76864;BME280;65834;52.364;9.754;2024-02-23T11:54:02;98753.00;;;10.02;nan
76864;BME280;65834;52.364;9.754;2024-02-23T11:56:32;98749.47;;;10.02;nan
76864;BME280;65834;52.364;9.754;2024-02-23T11:59:02;98740.09;;;10.04;nan
76864;BME280;65834;52.364;9.754;2024-02-23T12:01:32;98743.97;;;10.08;nan
76864;BME280;65834;52.364;9.754;2024-02-23T12:04:04;98749.53;;;10.13;nan
76864;BME280;65834;52.364;9.754;2024-02-23T12:06:35;98747.31;;;10.22;nan
76864;BME280;65834;52.364;9.754;2024-02-23T12:09:05;98756.16;;;10.29;nan
76864;BME280;65834;52.364;9.754;2024-02-23T12:11:35;98734.91;;;10.32;nan
76864;BME280;65834;52.364;9.754;2024-02-23T12:14:05;98726.91;;;10.38;nan
76864;BME280;65834;52.364;9.754;2024-02-23T12:16:36;98739.28;;;10.45;nan
76864;BME280;65834;52.364;9.754;2024-02-23T12:19:08;98740.44;;;10.49;nan
76864;BME280;65834;52.364;9.754;2024-02-23T12:21:38;98737.88;;;10.54;nan
76864;BME280;65834;52.364;9.754;2024-02-23T12:24:08;98736.13;;;10.60;nan
76864;BME280;65834;52.364;9.754;2024-02-23T12:26:38;98733.31;;;10.66;nan
76864;BME280;65834;52.364;9.754;2024-02-23T12:29:09;98744.00;;;10.73;nan
76864;BME280;65834;52.364;9.754;2024-02-23T12:31:39;98744.94;;;10.78;nan
76864;BME280;65834;52.364;9.754;2024-02-23T12:34:13;98736.09;;;10.83;nan
76864;BME280;65834;52.364;9.754;2024-02-23T12:36:46;98739.53;;;10.90;nan
76864;BME280;65834;52.364;9.754;2024-02-23T12:39:15;98731.28;;;10.97;nan
76864;BME280;65834;52.364;9.754;2024-02-23T12:41:46;98743.66;;;11.04;nan
76864;BME280;65834;52.364;9.754;2024-02-23T12:44:17;98738.56;;;11.08;nan
76864;BME280;65834;52.364;9.754;2024-02-23T12:46:47;98739.53;;;11.13;nan
76864;BME280;65834;52.364;9.754;2024-02-23T12:49:19;98749.28;;;11.14;nan
76864;BME280;65834;52.364;9.754;2024-02-23T12:51:49;98760.22;;;11.19;nan
76864;BME280;65834;52.364;9.754;2024-02-23T12:54:19;98754.69;;;11.14;nan
76864;BME280;65834;52.364;9.754;2024-02-23T12:56:49;98765.41;;;11.09;nan
76864;BME280;65834;52.364;9.754;2024-02-23T12:59:19;98761.28;;;11.07;nan
76864;BME280;65834;52.364;9.754;2024-02-23T13:01:49;98771.50;;;11.05;nan
76864;BME280;65834;52.364;9.754;2024-02-23T13:04:21;98776.22;;;10.98;nan
76864;BME280;65834;52.364;9.754;2024-02-23T13:06:52;98777.28;;;10.97;nan
76864;BME280;65834;52.364;9.754;2024-02-23T13:09:23;98779.41;;;10.95;nan
76864;BME280;65834;52.364;9.754;2024-02-23T13:11:53;98782.13;;;10.95;nan
76864;BME280;65834;52.364;9.754;2024-02-23T13:14:23;98776.72;;;10.95;nan
76864;BME280;65834;52.364;9.754;2024-02-23T13:16:53;98775.53;;;10.91;nan
76864;BME280;65834;52.364;9.754;2024-02-23T13:19:25;98781.16;;;10.89;nan
76864;BME280;65834;52.364;9.754;2024-02-23T13:21:55;98777.88;;;10.87;nan
76864;BME280;65834;52.364;9.754;2024-02-23T13:24:27;98787.28;;;10.84;nan
76864;BME280;65834;52.364;9.754;2024-02-23T13:26:57;98794.56;;;10.84;nan
76864;BME280;65834;52.364;9.754;2024-02-23T13:29:27;98795.28;;;10.79;nan
76864;BME280;65834;52.364;9.754;2024-02-23T13:31:57;98785.97;;;10.75;nan
76864;BME280;65834;52.364;9.754;2024-02-23T13:34:29;98791.28;;;10.70;nan
76864;BME280;65834;52.364;9.754;2024-02-23T13:36:59;98798.56;;;10.70;nan
76864;BME280;65834;52.364;9.754;2024-02-23T13:39:28;98788.44;;;10.65;nan
76864;BME280;65834;52.364;9.754;2024-02-23T13:41:59;98787.47;;;10.60;nan
76864;BME280;65834;52.364;9.754;2024-02-23T13:44:28;98781.72;;;10.56;nan
76864;BME280;65834;52.364;9.754;2024-02-23T13:46:58;98794.19;;;10.57;nan
76864;BME280;65834;52.364;9.754;2024-02-23T13:49:30;98795.47;;;10.55;nan
76864;BME280;65834;52.364;9.754;2024-02-23T13:52:00;98789.09;;;10.49;nan
76864;BME280;65834;52.364;9.754;2024-02-23T13:54:30;98799.91;;;10.49;nan
76864;BME280;65834;52.364;9.754;2024-02-23T13:57:02;98787.09;;;10.45;nan
76864;BME280;65834;52.364;9.754;2024-02-23T13:59:32;98786.28;;;10.44;nan
76864;BME280;65834;52.364;9.754;2024-02-23T14:02:03;98796.41;;;10.49;nan